createdAt,value
2019-03-17T00:00:17.342Z,14.60
2019-03-17T00:02:46.074Z,14.48
2019-03-17T00:05:14.885Z,14.29
2019-03-17T00:07:43.674Z,14.13
2019-03-17T00:10:12.388Z,14.04
2019-03-17T00:12:41.109Z,13.94
2019-03-17T00:15:10.328Z,13.72
2019-03-17T00:17:41.684Z,13.47
2019-03-17T00:20:09.594Z,13.25
2019-03-17T00:22:38.449Z,13.03
2019-03-17T00:25:09.753Z,12.83
2019-03-17T00:27:37.708Z,12.62
2019-03-17T00:30:11.910Z,12.50
2019-03-17T00:32:40.619Z,12.64
2019-03-17T00:35:09.333Z,12.55
2019-03-17T00:37:38.208Z,12.47
2019-03-17T00:40:11.667Z,12.39
2019-03-17T00:42:40.381Z,12.40
2019-03-17T00:45:11.793Z,12.27
2019-03-17T00:47:40.729Z,12.57
2019-03-17T00:50:11.134Z,12.65
2019-03-17T00:52:39.900Z,12.66
2019-03-17T00:55:08.817Z,12.36
2019-03-17T00:57:37.544Z,12.24
2019-03-17T01:00:11.927Z,12.18
2019-03-17T01:02:40.719Z,12.17
2019-03-17T01:05:09.432Z,12.15
2019-03-17T01:07:38.217Z,12.35
2019-03-17T01:10:08.943Z,12.67
2019-03-17T01:12:37.662Z,12.71
2019-03-17T01:15:07.615Z,12.70
2019-03-17T01:17:36.339Z,12.70
2019-03-17T01:20:07.204Z,12.66
2019-03-17T01:22:36.173Z,12.55
2019-03-17T01:25:07.194Z,12.45
2019-03-17T01:27:36.012Z,12.38
2019-03-17T01:30:07.994Z,12.17
2019-03-17T01:32:36.711Z,12.17
2019-03-17T01:35:09.474Z,12.08
2019-03-17T01:37:38.115Z,12.18
2019-03-17T01:40:09.047Z,12.17
2019-03-17T01:42:37.766Z,12.26
2019-03-17T01:45:08.911Z,12.17
2019-03-17T01:47:37.633Z,12.32
2019-03-17T01:50:07.854Z,12.42
2019-03-17T01:52:38.103Z,12.42
2019-03-17T01:55:07.475Z,12.52
2019-03-17T01:57:39.179Z,12.46
2019-03-17T02:00:11.479Z,12.25
2019-03-17T02:02:40.194Z,12.15
2019-03-17T02:05:20.976Z,12.20
2019-03-17T02:07:39.621Z,12.23
2019-03-17T02:10:09.334Z,12.07
2019-03-17T02:12:38.052Z,11.86
2019-03-17T02:15:08.303Z,11.75
2019-03-17T02:17:37.027Z,11.64
2019-03-17T02:20:10.285Z,11.61
2019-03-17T02:22:39.093Z,11.57
2019-03-17T02:25:07.912Z,11.56
2019-03-17T02:27:36.645Z,11.57
2019-03-17T02:30:08.273Z,11.46
2019-03-17T02:32:36.984Z,11.33
2019-03-17T02:35:06.298Z,11.33
2019-03-17T02:37:35.057Z,11.20
2019-03-17T02:40:04.587Z,11.24
2019-03-17T02:42:33.289Z,11.47
2019-03-17T02:45:02.058Z,11.64
2019-03-17T02:47:30.773Z,11.68
2019-03-17T02:49:59.494Z,11.75
2019-03-17T02:52:28.278Z,11.81
2019-03-17T02:54:57.010Z,11.86
2019-03-17T02:57:25.726Z,11.99
2019-03-17T02:59:54.872Z,12.23
2019-03-17T03:02:23.620Z,12.42
2019-03-17T03:04:52.332Z,12.22
2019-03-17T03:07:21.170Z,12.18
2019-03-17T03:09:49.909Z,12.17
2019-03-17T03:12:18.634Z,12.22
2019-03-17T03:14:47.515Z,12.31
2019-03-17T03:17:16.242Z,12.35
2019-03-17T03:19:44.961Z,12.33
2019-03-17T03:22:13.823Z,12.40
2019-03-17T03:24:42.539Z,12.46
2019-03-17T03:27:11.253Z,12.53
2019-03-17T03:29:40.509Z,12.57
2019-03-17T03:32:09.237Z,12.63
2019-03-17T03:34:37.965Z,12.59
2019-03-17T03:37:06.707Z,12.57
2019-03-17T03:39:35.430Z,12.56
2019-03-17T03:42:04.253Z,12.56
2019-03-17T03:44:33.021Z,12.49
2019-03-17T03:47:01.752Z,12.54
2019-03-17T03:49:30.471Z,12.51
2019-03-17T03:51:59.244Z,12.47
2019-03-17T03:54:27.966Z,12.37
2019-03-17T03:56:56.673Z,12.41
2019-03-17T03:59:25.558Z,12.36
2019-03-17T04:01:54.284Z,12.31
2019-03-17T04:04:23.080Z,12.36
2019-03-17T04:06:51.958Z,12.21
2019-03-17T04:09:20.690Z,12.10
2019-03-17T04:11:49.406Z,12.09
2019-03-17T04:14:18.189Z,11.92
2019-03-17T04:16:46.911Z,11.70
2019-03-17T04:19:15.621Z,11.51
2019-03-17T04:21:44.388Z,11.47
2019-03-17T04:24:13.118Z,11.26
2019-03-17T04:26:41.839Z,11.39
2019-03-17T04:29:10.717Z,11.27
2019-03-17T04:31:39.434Z,11.07
2019-03-17T04:34:08.159Z,10.90
2019-03-17T04:36:40.456Z,10.84
2019-03-17T04:39:07.369Z,10.82
2019-03-17T04:41:37.536Z,10.82
2019-03-17T04:44:06.423Z,10.64
2019-03-17T04:46:35.147Z,10.48
2019-03-17T04:49:03.873Z,10.32
2019-03-17T04:51:32.729Z,10.28
2019-03-17T04:54:01.455Z,10.29
2019-03-17T04:56:30.180Z,10.38
2019-03-17T04:58:59.332Z,10.34
2019-03-17T05:01:28.059Z,10.52
2019-03-17T05:03:56.775Z,10.62
2019-03-17T05:06:25.727Z,10.49
2019-03-17T05:08:54.443Z,10.47
2019-03-17T05:11:23.169Z,10.46
2019-03-17T05:13:52.042Z,10.58
2019-03-17T05:16:20.767Z,10.88
2019-03-17T05:18:49.500Z,11.03
2019-03-17T05:21:18.521Z,11.05
2019-03-17T05:23:47.251Z,11.15
2019-03-17T05:26:15.975Z,11.02
2019-03-17T05:28:44.732Z,11.11
2019-03-17T05:31:13.461Z,11.00
2019-03-17T05:33:42.183Z,11.20
2019-03-17T05:36:10.971Z,11.10
2019-03-17T05:38:39.701Z,11.18
2019-03-17T05:41:08.405Z,11.21
2019-03-17T05:43:37.177Z,11.14
2019-03-17T05:46:05.887Z,10.97
2019-03-17T05:48:34.607Z,10.92
2019-03-17T05:51:03.558Z,10.89
2019-03-17T05:53:32.281Z,11.00
2019-03-17T05:56:00.996Z,11.09
2019-03-17T05:58:30.028Z,11.42
2019-03-17T06:00:58.757Z,11.53
2019-03-17T06:03:27.480Z,11.81
2019-03-17T06:05:56.266Z,12.01
2019-03-17T06:08:25.018Z,12.12
2019-03-17T06:10:53.740Z,12.20
2019-03-17T06:13:22.516Z,12.40
2019-03-17T06:15:51.236Z,12.49
2019-03-17T06:18:19.962Z,12.67
2019-03-17T06:20:49.138Z,12.80
2019-03-17T06:23:17.845Z,12.82
2019-03-17T06:25:49.412Z,12.98
2019-03-17T06:28:18.196Z,13.06
2019-03-17T06:30:46.916Z,13.16
2019-03-17T06:33:18.828Z,13.47
2019-03-17T06:35:47.619Z,13.86
2019-03-17T06:38:16.336Z,14.19
2019-03-17T06:40:46.511Z,14.37
2019-03-17T06:43:22.231Z,14.81
2019-03-17T06:45:50.951Z,15.02
2019-03-17T06:48:19.662Z,15.11
2019-03-17T06:50:48.849Z,15.44
2019-03-17T06:53:17.567Z,15.69
2019-03-17T06:55:46.286Z,15.99
2019-03-17T06:58:15.155Z,16.27
2019-03-17T07:00:43.876Z,16.43
2019-03-17T07:03:12.602Z,16.59
2019-03-17T07:05:41.422Z,16.67
2019-03-17T07:08:10.149Z,16.85
2019-03-17T07:10:38.914Z,17.06
2019-03-17T07:13:07.871Z,17.02
2019-03-17T07:15:36.581Z,17.25
2019-03-17T07:18:05.301Z,17.73
2019-03-17T07:20:34.452Z,17.94
2019-03-17T07:23:03.176Z,18.29
2019-03-17T07:25:31.911Z,18.53
2019-03-17T07:28:00.682Z,18.84
2019-03-17T07:30:29.437Z,18.89
2019-03-17T07:32:58.162Z,19.16
2019-03-17T07:35:27.260Z,19.25
2019-03-17T07:37:57.185Z,19.21
2019-03-17T07:40:26.076Z,19.20
2019-03-17T07:42:55.290Z,19.35
2019-03-17T07:45:24.010Z,19.15
2019-03-17T07:47:52.741Z,19.29
2019-03-17T07:50:21.853Z,19.53
2019-03-17T07:52:50.588Z,19.76
2019-03-17T07:55:19.304Z,19.41
2019-03-17T07:57:48.185Z,19.47
2019-03-17T08:00:16.999Z,19.51
2019-03-17T08:02:45.722Z,19.52
2019-03-17T08:05:14.526Z,19.53
2019-03-17T08:07:43.253Z,19.64
2019-03-17T08:10:16.417Z,20.11
2019-03-17T08:12:45.355Z,20.09
2019-03-17T08:15:14.793Z,20.21
2019-03-17T08:17:43.621Z,20.18
2019-03-17T08:20:15.298Z,20.16
2019-03-17T08:22:44.014Z,20.34
2019-03-17T08:25:14.065Z,20.71
2019-03-17T08:27:42.890Z,20.75
2019-03-17T08:30:13.787Z,20.86
2019-03-17T08:32:42.518Z,21.27
2019-03-17T08:35:11.471Z,21.46
2019-03-17T08:37:40.197Z,21.52
2019-03-17T08:40:16.776Z,21.53
2019-03-17T08:42:45.608Z,21.79
2019-03-17T08:45:14.843Z,21.80
2019-03-17T08:47:56.727Z,22.17
2019-03-17T08:50:16.662Z,22.11
2019-03-17T08:52:45.411Z,21.79
2019-03-17T08:55:14.633Z,21.93
2019-03-17T08:57:44.450Z,22.18
2019-03-17T09:00:14.675Z,22.45
2019-03-17T09:02:43.479Z,22.15
2019-03-17T09:05:12.188Z,22.28
2019-03-17T09:07:40.914Z,22.58
2019-03-17T09:10:16.390Z,22.37
2019-03-17T09:12:45.110Z,22.51
2019-03-17T09:15:13.928Z,22.74
2019-03-17T09:17:42.807Z,22.89
2019-03-17T09:20:15.092Z,22.82
2019-03-17T09:22:43.807Z,22.83
2019-03-17T09:25:12.657Z,23.00
2019-03-17T09:27:41.385Z,23.02
2019-03-17T09:30:16.011Z,22.93
2019-03-17T09:32:44.806Z,22.95
2019-03-17T09:35:13.625Z,22.67
2019-03-17T09:37:42.354Z,23.02
2019-03-17T09:40:13.293Z,23.19
2019-03-17T09:42:42.009Z,23.10
2019-03-17T09:45:14.711Z,23.24
2019-03-17T09:47:43.673Z,23.16
2019-03-17T09:50:21.185Z,23.43
2019-03-17T09:52:50.028Z,23.68
2019-03-17T09:55:18.773Z,23.71
2019-03-17T09:57:47.459Z,24.00
2019-03-17T10:00:21.217Z,24.02
2019-03-17T10:02:49.940Z,24.09
2019-03-17T10:05:18.661Z,24.37
2019-03-17T10:07:47.526Z,24.41
2019-03-17T10:10:17.471Z,24.57
2019-03-17T10:12:46.180Z,24.51
2019-03-17T10:15:17.183Z,24.54
2019-03-17T10:17:45.925Z,24.47
2019-03-17T10:20:17.082Z,24.59
2019-03-17T10:22:45.852Z,24.15
2019-03-17T10:25:14.572Z,24.19
2019-03-17T10:27:43.282Z,24.33
2019-03-17T10:30:14.880Z,24.53
2019-03-17T10:32:43.598Z,24.22
2019-03-17T10:35:12.315Z,24.63
2019-03-17T10:37:41.478Z,24.54
2019-03-17T10:40:17.269Z,24.67
2019-03-17T10:42:46.044Z,24.73
2019-03-17T10:45:16.775Z,24.98
2019-03-17T10:47:47.012Z,25.33
2019-03-17T10:50:20.326Z,25.58
2019-03-17T10:52:49.250Z,25.75
2019-03-17T10:55:17.960Z,25.95
2019-03-17T10:57:46.764Z,26.06
2019-03-17T11:00:22.649Z,25.97
2019-03-17T11:02:51.339Z,25.75
2019-03-17T11:05:20.238Z,25.78
2019-03-17T11:07:48.941Z,26.27
2019-03-17T11:10:17.664Z,26.16
2019-03-17T11:12:46.525Z,26.15
2019-03-17T11:15:19.156Z,25.98
2019-03-17T11:17:47.976Z,26.41
2019-03-17T11:20:16.775Z,26.05
2019-03-17T11:22:45.610Z,26.60
2019-03-17T11:25:16.269Z,26.76
2019-03-17T11:27:45.038Z,26.29
2019-03-17T11:30:16.101Z,26.15
2019-03-17T11:32:44.816Z,25.89
2019-03-17T11:35:14.076Z,25.97
2019-03-17T11:37:42.903Z,26.16
2019-03-17T11:40:21.437Z,26.51
2019-03-17T11:42:50.495Z,26.22
2019-03-17T11:45:19.531Z,26.21
2019-03-17T11:47:48.540Z,26.18
2019-03-17T11:50:21.311Z,25.79
2019-03-17T11:52:50.061Z,25.66
2019-03-17T11:55:18.927Z,25.37
2019-03-17T11:57:47.751Z,25.70
2019-03-17T12:00:20.356Z,25.85
2019-03-17T12:02:49.356Z,26.31
2019-03-17T12:05:18.079Z,26.94
2019-03-17T12:07:48.375Z,27.27
2019-03-17T12:10:24.387Z,27.37
2019-03-17T12:12:53.278Z,26.98
2019-03-17T12:15:24.481Z,26.98
2019-03-17T12:17:53.368Z,26.60
2019-03-17T12:20:22.186Z,26.37
2019-03-17T12:22:50.965Z,26.40
2019-03-17T12:25:20.133Z,26.29
2019-03-17T12:27:48.851Z,26.56
2019-03-17T12:30:29.790Z,26.50
2019-03-17T12:32:58.494Z,26.58
2019-03-17T12:35:27.203Z,26.70
2019-03-17T12:37:56.426Z,26.60
2019-03-17T12:40:25.144Z,26.61
2019-03-17T12:42:53.872Z,26.98
2019-03-17T12:45:22.657Z,26.98
2019-03-17T12:47:51.373Z,27.39
2019-03-17T12:50:26.860Z,27.39
2019-03-17T12:52:55.663Z,27.20
2019-03-17T12:55:24.370Z,27.34
2019-03-17T12:57:53.100Z,27.95
2019-03-17T13:00:26.681Z,27.95
2019-03-17T13:02:55.496Z,28.00
2019-03-17T13:05:24.216Z,27.67
2019-03-17T13:07:53.015Z,27.60
2019-03-17T13:10:22.442Z,27.37
2019-03-17T13:12:51.167Z,26.96
2019-03-17T13:15:20.049Z,27.13
2019-03-17T13:17:48.768Z,27.29
2019-03-17T13:20:19.358Z,27.16
2019-03-17T13:22:48.144Z,27.03
2019-03-17T13:25:16.873Z,27.28
2019-03-17T13:27:45.591Z,27.59
2019-03-17T13:30:16.314Z,27.44
2019-03-17T13:32:45.058Z,27.40
2019-03-17T13:35:13.588Z,27.46
2019-03-17T13:37:42.345Z,27.76
2019-03-17T13:40:27.615Z,27.85
2019-03-17T13:42:45.723Z,27.68
2019-03-17T13:45:15.075Z,27.61
2019-03-17T13:47:43.801Z,27.40
2019-03-17T13:50:23.385Z,27.43
2019-03-17T13:52:52.108Z,27.55
2019-03-17T13:55:20.827Z,27.39
2019-03-17T13:58:01.062Z,28.03
2019-03-17T14:00:29.881Z,28.21
2019-03-17T14:02:58.601Z,28.24
2019-03-17T14:05:27.407Z,27.89
2019-03-17T14:07:56.136Z,27.59
2019-03-17T14:10:24.859Z,27.57
2019-03-17T14:12:53.608Z,27.76
2019-03-17T14:15:22.391Z,27.70
2019-03-17T14:17:51.131Z,27.56
2019-03-17T14:20:21.203Z,27.67
2019-03-17T14:22:49.997Z,27.93
2019-03-17T14:25:27.312Z,27.88
2019-03-17T14:27:56.030Z,27.78
2019-03-17T14:30:24.752Z,27.68
2019-03-17T14:32:53.716Z,27.62
2019-03-17T14:35:22.527Z,27.79
2019-03-17T14:37:51.296Z,27.91
2019-03-17T14:40:20.175Z,27.69
2019-03-17T14:42:51.044Z,27.60
2019-03-17T14:45:19.867Z,27.63
2019-03-17T14:47:49.007Z,27.57
2019-03-17T14:50:24.428Z,27.69
2019-03-17T14:52:53.225Z,27.75
2019-03-17T14:55:21.956Z,27.81
2019-03-17T14:57:50.676Z,27.86
2019-03-17T15:00:20.648Z,27.75
2019-03-17T15:02:49.479Z,27.76
2019-03-17T15:05:18.205Z,27.57
2019-03-17T15:07:47.171Z,27.51
2019-03-17T15:10:20.238Z,27.66
2019-03-17T15:12:49.167Z,27.23
2019-03-17T15:15:19.338Z,27.05
2019-03-17T15:17:48.233Z,27.21
2019-03-17T15:20:27.614Z,27.08
2019-03-17T15:22:56.436Z,27.03
2019-03-17T15:25:25.175Z,26.68
2019-03-17T15:27:54.128Z,26.56
2019-03-17T15:30:27.536Z,26.25
2019-03-17T15:32:56.256Z,25.78
2019-03-17T15:35:25.035Z,25.30
2019-03-17T15:37:55.331Z,24.77
2019-03-17T15:40:24.052Z,24.39
2019-03-17T15:42:52.885Z,24.09
2019-03-17T15:45:23.579Z,23.71
2019-03-17T15:47:52.285Z,23.51
2019-03-17T15:50:22.153Z,23.25
2019-03-17T15:52:50.971Z,23.10
2019-03-17T15:55:19.838Z,22.84
2019-03-17T15:57:48.643Z,22.50
2019-03-17T16:00:25.565Z,22.04
2019-03-17T16:02:50.666Z,21.96
2019-03-17T16:05:20.233Z,21.87
2019-03-17T16:07:49.181Z,21.57
2019-03-17T16:10:19.701Z,21.15
2019-03-17T16:12:48.562Z,20.91
2019-03-17T16:15:17.274Z,20.86
2019-03-17T16:17:45.992Z,20.80
2019-03-17T16:20:22.924Z,20.80
2019-03-17T16:22:51.743Z,20.67
2019-03-17T16:25:25.995Z,20.76
2019-03-17T16:27:54.797Z,20.68
2019-03-17T16:30:26.483Z,20.52
2019-03-17T16:32:55.214Z,20.25
2019-03-17T16:35:24.063Z,20.26
2019-03-17T16:37:52.792Z,20.17
2019-03-17T16:40:28.833Z,19.98
2019-03-17T16:42:57.791Z,19.68
2019-03-17T16:45:26.509Z,19.29
2019-03-17T16:47:55.397Z,18.95
2019-03-17T16:50:25.053Z,18.94
2019-03-17T16:52:53.774Z,18.76
2019-03-17T16:55:22.655Z,18.59
2019-03-17T16:57:51.369Z,18.60
2019-03-17T17:00:22.132Z,18.67
2019-03-17T17:02:51.354Z,18.43
2019-03-17T17:05:20.986Z,18.09
2019-03-17T17:07:50.851Z,17.78
2019-03-17T17:10:24.368Z,17.44
2019-03-17T17:12:53.085Z,17.21
2019-03-17T17:15:29.517Z,17.02
2019-03-17T17:17:58.327Z,16.84
2019-03-17T17:20:39.057Z,16.74
2019-03-17T17:23:07.803Z,16.76
2019-03-17T17:25:36.536Z,16.94
2019-03-17T17:28:05.560Z,17.04
2019-03-17T17:30:34.280Z,16.89
2019-03-17T17:33:03.004Z,16.76
2019-03-17T17:35:32.137Z,16.41
2019-03-17T17:38:00.860Z,16.20
2019-03-17T17:40:29.584Z,16.08
2019-03-17T17:42:58.600Z,15.75
2019-03-17T17:45:27.427Z,15.54
2019-03-17T17:47:56.158Z,15.39
2019-03-17T17:50:31.905Z,15.24
2019-03-17T17:53:00.639Z,15.24
2019-03-17T17:55:29.463Z,15.08
2019-03-17T17:57:58.684Z,15.00
2019-03-17T18:00:31.696Z,15.00
2019-03-17T18:03:00.433Z,14.93
2019-03-17T18:05:29.271Z,14.92
2019-03-17T18:07:58.000Z,15.01
2019-03-17T18:10:29.031Z,14.98
2019-03-17T18:12:58.334Z,14.77
2019-03-17T18:15:33.840Z,14.67
2019-03-17T18:18:02.750Z,14.48
2019-03-17T18:20:31.483Z,14.47
2019-03-17T18:23:00.212Z,14.45
2019-03-17T18:25:29.030Z,14.34
2019-03-17T18:27:57.755Z,14.28
2019-03-17T18:30:26.496Z,14.25
2019-03-17T18:32:55.302Z,14.22
2019-03-17T18:35:25.025Z,14.23
2019-03-17T18:37:53.784Z,14.14
2019-03-17T18:40:24.515Z,14.32
2019-03-17T18:42:53.237Z,14.23
2019-03-17T18:45:24.001Z,14.07
2019-03-17T18:47:52.919Z,14.03
2019-03-17T18:50:21.618Z,14.10
2019-03-17T18:52:50.352Z,14.04
2019-03-17T18:55:19.216Z,13.89
2019-03-17T18:57:47.946Z,14.09
2019-03-17T19:00:18.078Z,13.95
2019-03-17T19:02:46.944Z,13.88
2019-03-17T19:05:19.520Z,13.76
2019-03-17T19:07:47.088Z,13.63
2019-03-17T19:10:17.057Z,13.47
2019-03-17T19:12:46.389Z,13.40
2019-03-17T19:15:16.498Z,13.28
2019-03-17T19:17:45.264Z,13.28
2019-03-17T19:20:21.409Z,13.18
2019-03-17T19:22:50.206Z,13.18
2019-03-17T19:25:23.685Z,13.01
2019-03-17T19:27:52.415Z,12.90
2019-03-17T19:30:22.349Z,12.80
2019-03-17T19:32:51.514Z,12.61
2019-03-17T19:35:20.208Z,12.62
2019-03-17T19:37:48.991Z,12.54
2019-03-17T19:40:21.833Z,12.51
2019-03-17T19:42:58.770Z,12.42
2019-03-17T19:45:21.155Z,12.40
2019-03-17T19:47:49.887Z,12.35
2019-03-17T19:50:22.276Z,12.34
2019-03-17T19:52:51.073Z,12.32
2019-03-17T19:55:19.897Z,12.32
2019-03-17T19:57:48.620Z,12.36
2019-03-17T20:00:19.397Z,12.24
2019-03-17T20:02:48.182Z,12.21
2019-03-17T20:05:16.969Z,12.16
2019-03-17T20:07:46.186Z,12.10
2019-03-17T20:10:26.548Z,12.11
2019-03-17T20:12:55.310Z,12.27
2019-03-17T20:15:24.033Z,12.15
2019-03-17T20:17:52.773Z,12.17
2019-03-17T20:20:21.571Z,11.89
2019-03-17T20:22:50.428Z,11.76
2019-03-17T20:25:19.143Z,11.62
2019-03-17T20:27:48.257Z,11.49
2019-03-17T20:30:18.083Z,11.36
2019-03-17T20:32:46.815Z,11.24
2019-03-17T20:35:15.624Z,11.28
2019-03-17T20:37:44.353Z,11.29
2019-03-17T20:40:15.109Z,11.40
2019-03-17T20:42:44.332Z,11.53
2019-03-17T20:45:14.565Z,11.70
2019-03-17T20:47:43.703Z,11.70
2019-03-17T20:50:19.688Z,11.68
2019-03-17T20:52:49.653Z,11.59
2019-03-17T20:55:18.445Z,11.53
2019-03-17T20:57:47.564Z,11.57
2019-03-17T21:00:18.189Z,11.52
2019-03-17T21:02:46.998Z,11.37
2019-03-17T21:05:16.579Z,11.36
2019-03-17T21:07:45.394Z,11.16
2019-03-17T21:10:17.722Z,11.26
2019-03-17T21:12:46.810Z,10.73
2019-03-17T21:15:22.067Z,10.59
2019-03-17T21:17:50.797Z,10.36
2019-03-17T21:20:24.463Z,10.13
2019-03-17T21:22:53.191Z,9.89
2019-03-17T21:25:22.064Z,9.86
2019-03-17T21:27:50.827Z,9.88
2019-03-17T21:30:30.950Z,10.06
2019-03-17T21:32:59.838Z,10.04
2019-03-17T21:35:28.559Z,10.01
2019-03-17T21:37:57.290Z,9.84
2019-03-17T21:40:26.312Z,9.79
2019-03-17T21:42:55.031Z,9.94
2019-03-17T21:45:23.763Z,9.98
2019-03-17T21:47:52.537Z,10.10
2019-03-17T21:50:21.645Z,9.75
2019-03-17T21:52:50.414Z,9.67
2019-03-17T21:55:19.332Z,9.63
2019-03-17T21:57:48.036Z,9.58
2019-03-17T22:00:17.454Z,9.45
2019-03-17T22:02:46.637Z,9.32
2019-03-17T22:05:15.365Z,9.44
2019-03-17T22:07:50.271Z,9.51
2019-03-17T22:10:17.914Z,9.64
2019-03-17T22:12:46.639Z,9.52
2019-03-17T22:15:16.452Z,9.37
2019-03-17T22:17:45.320Z,9.27
2019-03-17T22:20:14.935Z,9.33
2019-03-17T22:22:43.655Z,9.36
2019-03-17T22:25:13.722Z,9.30
2019-03-17T22:27:42.439Z,9.30
2019-03-17T22:30:21.334Z,9.48
2019-03-17T22:32:50.056Z,9.80
2019-03-17T22:35:18.769Z,9.69
2019-03-17T22:37:47.627Z,9.68
2019-03-17T22:40:17.248Z,9.60
2019-03-17T22:42:46.028Z,9.54
2019-03-17T22:45:15.983Z,9.34
2019-03-17T22:47:44.691Z,9.05
2019-03-17T22:50:15.478Z,8.81
2019-03-17T22:52:44.245Z,8.62
2019-03-17T22:55:13.163Z,8.48
2019-03-17T22:57:41.878Z,8.41
2019-03-17T23:00:14.081Z,8.42
2019-03-17T23:02:42.806Z,8.40
2019-03-17T23:05:11.528Z,8.52
2019-03-17T23:07:40.407Z,8.58
2019-03-17T23:10:11.341Z,8.61
2019-03-17T23:12:40.075Z,8.62
2019-03-17T23:15:11.459Z,8.62
2019-03-17T23:17:40.186Z,8.64
2019-03-17T23:20:13.278Z,8.68
2019-03-17T23:22:42.046Z,8.69
2019-03-17T23:25:11.957Z,8.72
2019-03-17T23:27:40.676Z,8.65
2019-03-17T23:30:15.075Z,8.63
2019-03-17T23:32:43.788Z,8.62
2019-03-17T23:35:12.509Z,8.54
2019-03-17T23:37:41.377Z,8.54
2019-03-17T23:40:11.892Z,8.58
2019-03-17T23:42:40.606Z,8.59
2019-03-17T23:45:10.986Z,8.51
2019-03-17T23:47:39.710Z,8.34
2019-03-17T23:50:10.231Z,8.22
2019-03-17T23:52:39.078Z,8.21
2019-03-17T23:55:10.047Z,8.12
2019-03-17T23:57:38.754Z,8.09
